Time;durP1;ratioP1;P1;durP2;ratioP2;P2;SDS_P1;SDS_P2;PMS_P1;PMS_P2;Temp;Humidity;BMP_temperature;BMP_pressure;BME280_temperature;BME280_humidity;BME280_pressure;Samples;Min_cycle;Max_cycle;Signal;HPM_P1;HPM_P2
2022/10/07 00:01:43;;;;;;;;;;;13.70;50.40;;;;;;5022494;28;19925;-43
2022/10/07 00:04:10;;;;;;;;;;;13.70;50.40;;;;;;5025319;28;19929;-42
2022/10/07 00:06:37;;;;;;;;;;;13.70;50.40;;;;;;5026030;28;19937;-44
2022/10/07 00:09:04;;;;;;;;;;;13.60;50.40;;;;;;5024185;28;20285;-45
2022/10/07 00:11:31;;;;;;;;;;;13.60;50.40;;;;;;5024998;28;19925;-41
2022/10/07 00:13:59;;;;;;;;;;;13.60;50.60;;;;;;5025963;28;20384;-43
2022/10/07 00:16:27;;;;;;;;;;;13.60;50.60;;;;;;5025717;28;20411;-42
2022/10/07 00:18:57;;;;;;;;;;;13.60;50.60;;;;;;5025465;28;20400;-45
2022/10/07 00:21:24;;;;;;;;;;;13.50;50.60;;;;;;5024443;28;19929;-42
2022/10/07 00:23:51;;;;;;;;;;;13.50;50.70;;;;;;5024261;28;19933;-47
2022/10/07 00:26:20;;;;;;;;;;;13.50;50.80;;;;;;5024906;28;20284;-45
2022/10/07 00:28:47;;;;;;;;;;;13.50;50.80;;;;;;5024882;28;19925;-41
2022/10/07 00:31:15;;;;;;;;;;;13.50;50.90;;;;;;5021457;28;20388;-42
2022/10/07 00:33:42;;;;;;;;;;;13.50;50.90;;;;;;5025410;28;20223;-45
2022/10/07 00:36:12;;;;;;;;;;;13.50;50.90;;;;;;5026690;28;19929;-43
2022/10/07 00:38:39;;;;;;;;;;;13.50;51.00;;;;;;5023844;28;19929;-42
2022/10/07 00:41:07;;;;;;;;;;;13.40;51.00;;;;;;5024509;28;19929;-44
2022/10/07 00:43:34;;;;;;;;;;;13.40;51.00;;;;;;5025076;28;19936;-45
2022/10/07 00:46:05;;;;;;;;;;;13.40;51.00;;;;;;5024827;28;19929;-46
2022/10/07 00:48:32;;;;;;;;;;;13.40;51.10;;;;;;5025549;28;19932;-46
2022/10/07 00:51:00;;;;;;;;;;;13.40;51.10;;;;;;5022258;28;19932;-47
2022/10/07 00:53:30;;;;;;;;;;;13.40;51.10;;;;;;5025349;28;19929;-42
2022/10/07 00:56:00;;;;;;;;;;;13.30;51.10;;;;;;5023605;28;20377;-42
2022/10/07 00:58:27;;;;;;;;;;;13.30;51.10;;;;;;5025912;28;19932;-43
2022/10/07 01:00:54;;;;;;;;;;;13.30;51.20;;;;;;5021743;28;19925;-45
2022/10/07 01:03:21;;;;;;;;;;;13.30;51.20;;;;;;5024854;28;19925;-44
2022/10/07 01:05:49;;;;;;;;;;;13.20;51.20;;;;;;5022894;28;19936;-47
2022/10/07 01:08:16;;;;;;;;;;;13.20;51.30;;;;;;5024198;28;19936;-42
2022/10/07 01:10:50;;;;;;;;;;;13.20;51.30;;;;;;5022202;28;19932;-43
2022/10/07 01:13:19;;;;;;;;;;;13.20;51.40;;;;;;5024743;28;19925;-42
2022/10/07 01:15:49;;;;;;;;;;;13.20;51.40;;;;;;5022259;28;19932;-45
2022/10/07 01:18:18;;;;;;;;;;;13.20;51.50;;;;;;5023362;28;20381;-47
2022/10/07 01:20:50;;;;;;;;;;;13.20;51.50;;;;;;5022255;28;19933;-44
2022/10/07 01:23:35;;;;;;;;;;;13.10;51.50;;;;;;5023414;28;20365;-43
2022/10/07 01:26:16;;;;;;;;;;;13.10;51.50;;;;;;5024796;28;19940;-47
2022/10/07 01:28:46;;;;;;;;;;;13.10;51.60;;;;;;5024532;28;19925;-47
2022/10/07 01:31:16;;;;;;;;;;;13.00;51.50;;;;;;5020820;28;19932;-45
2022/10/07 01:33:44;;;;;;;;;;;13.10;51.60;;;;;;5021265;28;19996;-44
2022/10/07 01:36:14;;;;;;;;;;;13.00;51.60;;;;;;5022059;28;19925;-43
2022/10/07 01:38:43;;;;;;;;;;;13.00;51.60;;;;;;5013408;28;19925;-44
2022/10/07 01:41:13;;;;;;;;;;;13.00;51.60;;;;;;5020167;28;20292;-43
2022/10/07 01:43:40;;;;;;;;;;;13.00;51.70;;;;;;5022067;28;19929;-41
2022/10/07 01:46:11;;;;;;;;;;;13.00;51.80;;;;;;5021361;28;20377;-45
2022/10/07 01:48:38;;;;;;;;;;;12.90;51.80;;;;;;5023455;28;19925;-44
2022/10/07 01:51:06;;;;;;;;;;;12.90;51.90;;;;;;5022873;28;19929;-41
2022/10/07 01:53:40;;;;;;;;;;;12.90;51.90;;;;;;5019853;28;20389;-43
2022/10/07 01:56:17;;;;;;;;;;;12.90;51.90;;;;;;5018318;28;19929;-41
2022/10/07 01:58:53;;;;;;;;;;;12.90;51.90;;;;;;5023597;28;19960;-42
2022/10/07 02:01:22;;;;;;;;;;;12.80;51.90;;;;;;5021269;28;19929;-42
2022/10/07 02:04:05;;;;;;;;;;;12.80;52.00;;;;;;5021986;28;19925;-44
2022/10/07 02:06:38;;;;;;;;;;;12.80;52.00;;;;;;5022838;28;19929;-46
2022/10/07 02:09:09;;;;;;;;;;;12.80;52.10;;;;;;5020532;28;19932;-42
2022/10/07 02:11:38;;;;;;;;;;;12.80;52.10;;;;;;5020551;28;19933;-43
2022/10/07 02:14:10;;;;;;;;;;;12.80;52.10;;;;;;5021264;28;20288;-44
2022/10/07 02:16:40;;;;;;;;;;;12.80;52.20;;;;;;5023325;28;19925;-44
2022/10/07 02:19:09;;;;;;;;;;;12.80;52.20;;;;;;5023586;28;19925;-44
2022/10/07 02:21:38;;;;;;;;;;;12.70;52.10;;;;;;5022405;28;20284;-48
2022/10/07 02:24:07;;;;;;;;;;;12.70;52.20;;;;;;5023308;28;19932;-43
2022/10/07 02:26:35;;;;;;;;;;;12.70;52.20;;;;;;5023579;28;19932;-42
2022/10/07 02:29:04;;;;;;;;;;;12.70;52.20;;;;;;5022604;28;19932;-49
2022/10/07 02:31:32;;;;;;;;;;;12.70;52.20;;;;;;5022621;28;19925;-49
2022/10/07 02:34:02;;;;;;;;;;;12.70;52.30;;;;;;5023780;28;19932;-53
2022/10/07 02:36:31;;;;;;;;;;;12.70;52.30;;;;;;5023327;28;19929;-54
2022/10/07 02:38:59;;;;;;;;;;;12.70;52.30;;;;;;5023346;28;19936;-53
2022/10/07 02:41:32;;;;;;;;;;;12.60;52.30;;;;;;5022735;28;20978;-53
2022/10/07 02:44:03;;;;;;;;;;;12.60;52.30;;;;;;5022271;28;20395;-53
2022/10/07 02:46:31;;;;;;;;;;;12.60;52.30;;;;;;5016450;28;20324;-52
2022/10/07 02:49:00;;;;;;;;;;;12.60;52.30;;;;;;5020081;28;19936;-53
2022/10/07 02:51:32;;;;;;;;;;;12.50;52.30;;;;;;5015377;28;19951;-50
2022/10/07 02:54:01;;;;;;;;;;;12.50;52.30;;;;;;5021304;28;20385;-54
2022/10/07 02:56:29;;;;;;;;;;;12.50;52.30;;;;;;5023015;28;19974;-53
2022/10/07 02:58:57;;;;;;;;;;;12.50;52.40;;;;;;5016176;28;19933;-53
2022/10/07 03:01:27;;;;;;;;;;;12.50;52.40;;;;;;5017539;28;20395;-49
2022/10/07 03:03:54;;;;;;;;;;;12.50;52.40;;;;;;5020804;28;20296;-53
2022/10/07 03:06:22;;;;;;;;;;;12.40;52.40;;;;;;5023060;28;19929;-53
2022/10/07 03:08:51;;;;;;;;;;;12.40;52.40;;;;;;5023562;28;19925;-52
2022/10/07 03:11:18;;;;;;;;;;;12.40;52.40;;;;;;5022989;28;19936;-51
2022/10/07 03:13:45;;;;;;;;;;;12.40;52.40;;;;;;5023827;28;20389;-53
2022/10/07 03:16:12;;;;;;;;;;;12.40;52.40;;;;;;5021284;28;19936;-54
2022/10/07 03:18:40;;;;;;;;;;;12.30;52.30;;;;;;5022670;28;19937;-52
2022/10/07 03:21:07;;;;;;;;;;;12.30;52.40;;;;;;5022989;28;19929;-54
2022/10/07 03:23:34;;;;;;;;;;;12.30;52.40;;;;;;5022614;28;20281;-50
2022/10/07 03:26:02;;;;;;;;;;;12.30;52.50;;;;;;5022863;28;19936;-48
2022/10/07 03:28:31;;;;;;;;;;;12.20;52.50;;;;;;5023512;28;19929;-53
2022/10/07 03:31:03;;;;;;;;;;;12.20;52.40;;;;;;5020700;28;20312;-54
2022/10/07 03:33:30;;;;;;;;;;;12.20;52.50;;;;;;5023769;28;19940;-54
2022/10/07 03:35:57;;;;;;;;;;;12.20;52.50;;;;;;5022922;28;19929;-53
2022/10/07 03:38:24;;;;;;;;;;;12.20;52.60;;;;;;5022668;28;19925;-52
2022/10/07 03:40:51;;;;;;;;;;;12.10;52.60;;;;;;5021035;28;19925;-54
2022/10/07 03:43:20;;;;;;;;;;;12.10;52.60;;;;;;5024668;28;19932;-52
2022/10/07 03:45:49;;;;;;;;;;;12.10;52.60;;;;;;5024203;28;20300;-51
2022/10/07 03:48:16;;;;;;;;;;;12.10;52.70;;;;;;5023996;28;19940;-54
2022/10/07 03:50:47;;;;;;;;;;;12.10;52.70;;;;;;5021633;28;19932;-53
2022/10/07 03:53:14;;;;;;;;;;;12.10;52.80;;;;;;5027353;28;19951;-52
2022/10/07 03:55:41;;;;;;;;;;;12.10;52.80;;;;;;5024918;28;19952;-53
2022/10/07 03:58:08;;;;;;;;;;;12.10;52.80;;;;;;5022046;28;19925;-54
2022/10/07 04:00:37;;;;;;;;;;;12.10;52.90;;;;;;5021700;28;19932;-54
2022/10/07 04:03:06;;;;;;;;;;;12.10;52.90;;;;;;5027125;28;19925;-54
2022/10/07 04:05:33;;;;;;;;;;;12.00;52.90;;;;;;5025651;28;19936;-53
2022/10/07 04:08:00;;;;;;;;;;;12.00;52.90;;;;;;5027675;28;20016;-53
2022/10/07 04:10:27;;;;;;;;;;;12.00;52.90;;;;;;5026006;28;19940;-53
2022/10/07 04:12:55;;;;;;;;;;;12.00;52.90;;;;;;5026618;28;20423;-54
2022/10/07 04:15:22;;;;;;;;;;;12.00;52.90;;;;;;5021594;28;19936;-54
2022/10/07 04:17:53;;;;;;;;;;;12.00;53.00;;;;;;5016001;28;20364;-52
2022/10/07 04:20:21;;;;;;;;;;;12.00;53.00;;;;;;5021263;28;19933;-50
2022/10/07 04:22:48;;;;;;;;;;;12.00;53.00;;;;;;5023508;28;19936;-54
2022/10/07 04:27:59;;;;;;;;;;;12.00;53.10;;;;;;5030091;28;19932;-49
2022/10/07 04:30:31;;;;;;;;;;;11.90;53.10;;;;;;5022877;28;19936;-54
2022/10/07 04:32:59;;;;;;;;;;;11.90;53.00;;;;;;5024659;28;20745;-53
2022/10/07 04:35:26;;;;;;;;;;;11.90;53.10;;;;;;5024785;28;19925;-48
2022/10/07 04:37:53;;;;;;;;;;;11.90;53.10;;;;;;5024651;28;19929;-53
2022/10/07 04:40:21;;;;;;;;;;;11.90;53.10;;;;;;5023356;28;19933;-51
2022/10/07 04:45:33;;;;;;;;;;;11.90;53.20;;;;;;5026971;28;20297;-46
2022/10/07 04:48:02;;;;;;;;;;;11.90;53.20;;;;;;5006681;28;19936;-49
2022/10/07 04:50:29;;;;;;;;;;;11.80;53.20;;;;;;5011155;28;19933;-51
2022/10/07 04:52:57;;;;;;;;;;;11.80;53.20;;;;;;5012064;28;19933;-52
2022/10/07 04:55:25;;;;;;;;;;;11.80;53.20;;;;;;5012109;28;20415;-54
2022/10/07 04:57:52;;;;;;;;;;;11.80;53.20;;;;;;5016804;28;19929;-51
2022/10/07 05:00:19;;;;;;;;;;;11.80;53.20;;;;;;5009767;28;19929;-50
2022/10/07 05:02:49;;;;;;;;;;;11.80;53.20;;;;;;5010679;28;19933;-49
2022/10/07 05:05:17;;;;;;;;;;;11.80;53.30;;;;;;5019299;28;20284;-54
2022/10/07 05:07:49;;;;;;;;;;;11.80;53.30;;;;;;5022162;28;19925;-53
2022/10/07 05:10:15;;;;;;;;;;;11.70;53.20;;;;;;5023997;28;19941;-53
2022/10/07 05:12:42;;;;;;;;;;;11.70;53.20;;;;;;5019089;28;19937;-53
2022/10/07 05:15:10;;;;;;;;;;;11.70;53.20;;;;;;5010919;28;20388;-52
2022/10/07 05:17:38;;;;;;;;;;;11.70;53.30;;;;;;5007830;28;19929;-53
2022/10/07 05:20:05;;;;;;;;;;;11.70;53.20;;;;;;5013441;28;19932;-50
2022/10/07 05:22:34;;;;;;;;;;;11.70;53.30;;;;;;5015885;28;19933;-49
2022/10/07 05:25:01;;;;;;;;;;;11.70;53.30;;;;;;5014696;28;19929;-51
2022/10/07 05:27:28;;;;;;;;;;;11.70;53.30;;;;;;5005966;28;19933;-48
2022/10/07 05:29:55;;;;;;;;;;;11.60;53.20;;;;;;5010785;28;20561;-48
2022/10/07 05:32:22;;;;;;;;;;;11.60;53.30;;;;;;5016754;28;20290;-54
2022/10/07 05:34:50;;;;;;;;;;;11.60;53.30;;;;;;5020128;28;19940;-52
2022/10/07 05:37:17;;;;;;;;;;;11.60;53.30;;;;;;5019699;28;19928;-50
2022/10/07 05:39:45;;;;;;;;;;;11.60;53.30;;;;;;5025669;28;19929;-54
2022/10/07 05:42:12;;;;;;;;;;;11.60;53.30;;;;;;5025341;28;19936;-50
2022/10/07 05:44:39;;;;;;;;;;;11.60;53.30;;;;;;5025172;28;19929;-52
2022/10/07 05:47:06;;;;;;;;;;;11.60;53.40;;;;;;5025000;28;19936;-50
2022/10/07 05:49:34;;;;;;;;;;;11.60;53.40;;;;;;5023521;28;20373;-51
2022/10/07 05:52:01;;;;;;;;;;;11.60;53.40;;;;;;5022285;28;19929;-53
2022/10/07 05:54:28;;;;;;;;;;;11.50;53.40;;;;;;5015361;28;19943;-52
2022/10/07 05:56:57;;;;;;;;;;;11.50;53.40;;;;;;5019087;28;19925;-52
2022/10/07 05:59:24;;;;;;;;;;;11.50;53.40;;;;;;5016330;28;20292;-53
2022/10/07 06:01:51;;;;;;;;;;;11.50;53.40;;;;;;5011291;28;19934;-50
2022/10/07 06:04:18;;;;;;;;;;;11.50;53.40;;;;;;5018295;28;20529;-51
2022/10/07 06:06:45;;;;;;;;;;;11.50;53.50;;;;;;5022976;28;19929;-52
2022/10/07 06:14:43;;;;;;;;;;;11.50;53.60;;;;;;5023505;28;19940;-53
2022/10/07 06:17:10;;;;;;;;;;;11.50;53.60;;;;;;5015674;28;19933;-52
2022/10/07 06:19:37;;;;;;;;;;;11.40;53.60;;;;;;5021445;28;19929;-52
2022/10/07 06:22:04;;;;;;;;;;;11.40;53.60;;;;;;5023925;28;20399;-54
2022/10/07 06:24:32;;;;;;;;;;;11.50;53.70;;;;;;5024524;28;19929;-54
2022/10/07 06:27:01;;;;;;;;;;;11.50;53.70;;;;;;5024221;28;19929;-51
2022/10/07 06:29:28;;;;;;;;;;;11.50;53.70;;;;;;5022254;28;20404;-53
2022/10/07 06:31:55;;;;;;;;;;;11.50;53.70;;;;;;5021446;28;19932;-53
2022/10/07 06:34:21;;;;;;;;;;;11.50;53.80;;;;;;5026993;28;19925;-53
2022/10/07 06:36:48;;;;;;;;;;;11.50;53.80;;;;;;5026932;28;19952;-52
2022/10/07 06:39:15;;;;;;;;;;;11.50;53.90;;;;;;5025573;28;20411;-48
2022/10/07 06:41:42;;;;;;;;;;;11.50;53.90;;;;;;5024848;28;19925;-50
2022/10/07 06:44:11;;;;;;;;;;;11.50;53.90;;;;;;5026293;28;19933;-49
2022/10/07 06:46:38;;;;;;;;;;;11.50;54.00;;;;;;5024702;28;20378;-54
2022/10/07 06:49:05;;;;;;;;;;;11.60;54.00;;;;;;5025611;28;19932;-52
2022/10/07 06:51:32;;;;;;;;;;;11.60;54.10;;;;;;5022682;28;19925;-52
2022/10/07 06:53:58;;;;;;;;;;;11.60;54.10;;;;;;5025464;28;19929;-53
2022/10/07 06:56:25;;;;;;;;;;;11.60;54.10;;;;;;5025802;28;19925;-52
2022/10/07 06:58:52;;;;;;;;;;;11.70;54.20;;;;;;5024248;28;20396;-51
2022/10/07 07:01:21;;;;;;;;;;;11.70;54.20;;;;;;5021921;28;20004;-51
2022/10/07 07:03:48;;;;;;;;;;;11.70;54.20;;;;;;5015608;28;20641;-52
2022/10/07 07:06:15;;;;;;;;;;;11.70;54.30;;;;;;5021140;28;19933;-51
2022/10/07 07:08:43;;;;;;;;;;;11.80;54.40;;;;;;5020122;28;19932;-52
2022/10/07 07:13:53;;;;;;;;;;;11.80;54.40;;;;;;5022917;28;19932;-53
2022/10/07 07:16:22;;;;;;;;;;;11.90;54.50;;;;;;5021243;28;20264;-51
2022/10/07 07:18:50;;;;;;;;;;;11.90;54.50;;;;;;5025401;28;19933;-52
2022/10/07 07:21:17;;;;;;;;;;;11.90;54.50;;;;;;5027771;28;19925;-50
2022/10/07 07:23:44;;;;;;;;;;;11.90;54.50;;;;;;5027109;28;20377;-52
2022/10/07 07:26:11;;;;;;;;;;;12.00;54.60;;;;;;5027651;28;20293;-47
2022/10/07 07:28:38;;;;;;;;;;;12.00;54.60;;;;;;5026627;28;20286;-51
2022/10/07 07:31:08;;;;;;;;;;;12.10;54.60;;;;;;5027240;28;19937;-53
2022/10/07 07:33:37;;;;;;;;;;;12.10;54.70;;;;;;5027430;28;20479;-54
2022/10/07 07:36:08;;;;;;;;;;;12.10;54.80;;;;;;5019895;28;19925;-52
2022/10/07 07:38:35;;;;;;;;;;;12.20;54.80;;;;;;5028494;28;19929;-53
2022/10/07 07:41:04;;;;;;;;;;;12.20;54.80;;;;;;5022309;28;20416;-50
2022/10/07 07:43:31;;;;;;;;;;;12.30;54.90;;;;;;5029198;28;20304;-49
2022/10/07 07:45:58;;;;;;;;;;;12.30;54.90;;;;;;5025756;28;20296;-50
2022/10/07 07:48:24;;;;;;;;;;;12.40;54.90;;;;;;5025751;28;19932;-47
2022/10/07 07:50:53;;;;;;;;;;;12.40;55.00;;;;;;5024724;28;20288;-51
2022/10/07 07:53:20;;;;;;;;;;;12.50;55.10;;;;;;5027767;28;19937;-53
2022/10/07 07:55:51;;;;;;;;;;;12.50;55.10;;;;;;5028317;28;19925;-53
2022/10/07 07:58:20;;;;;;;;;;;12.50;55.10;;;;;;5027590;28;19936;-53
2022/10/07 08:00:56;;;;;;;;;;;12.60;55.10;;;;;;5023707;28;19925;-51
2022/10/07 08:03:24;;;;;;;;;;;12.70;55.20;;;;;;5027386;28;19925;-52
2022/10/07 08:05:53;;;;;;;;;;;12.70;55.20;;;;;;5028336;28;19929;-53
2022/10/07 08:08:20;;;;;;;;;;;12.70;55.20;;;;;;5028037;28;19929;-53
2022/10/07 08:10:47;;;;;;;;;;;12.80;55.20;;;;;;5023579;28;19948;-53
2022/10/07 08:13:14;;;;;;;;;;;12.90;55.80;;;;;;5028235;28;20288;-51
2022/10/07 08:15:41;;;;;;;;;;;12.90;55.30;;;;;;5025792;28;19929;-52
2022/10/07 08:18:08;;;;;;;;;;;13.00;55.40;;;;;;5026823;28;19948;-51
2022/10/07 08:20:36;;;;;;;;;;;13.10;55.50;;;;;;5027092;28;19925;-48
2022/10/07 08:23:05;;;;;;;;;;;13.10;55.50;;;;;;5027651;28;19931;-51
2022/10/07 08:25:32;;;;;;;;;;;13.10;55.40;;;;;;5026217;28;19929;-53
2022/10/07 08:27:59;;;;;;;;;;;13.20;55.60;;;;;;5026308;28;19932;-49
2022/10/07 08:30:26;;;;;;;;;;;13.20;55.50;;;;;;5025026;28;19929;-49
2022/10/07 08:32:53;;;;;;;;;;;13.30;55.60;;;;;;5027007;28;19925;-50
2022/10/07 08:35:20;;;;;;;;;;;13.40;55.60;;;;;;5024702;28;19929;-49
2022/10/07 08:37:47;;;;;;;;;;;13.40;55.60;;;;;;5025775;28;20301;-52
2022/10/07 08:40:16;;;;;;;;;;;13.50;55.60;;;;;;5024690;28;20408;-51
2022/10/07 08:42:43;;;;;;;;;;;13.60;55.80;;;;;;5026231;28;19925;-50
2022/10/07 08:45:14;;;;;;;;;;;13.60;55.80;;;;;;5023545;28;20309;-51
2022/10/07 08:47:42;;;;;;;;;;;13.70;55.90;;;;;;5025132;28;19941;-53
2022/10/07 08:50:12;;;;;;;;;;;13.80;56.00;;;;;;5025146;28;19929;-54
2022/10/07 08:52:43;;;;;;;;;;;13.80;56.00;;;;;;5022923;28;19946;-49
2022/10/07 08:55:15;;;;;;;;;;;13.90;56.00;;;;;;5018446;28;19948;-52
2022/10/07 08:57:49;;;;;;;;;;;14.00;56.10;;;;;;5012461;28;19936;-50
2022/10/07 09:00:18;;;;;;;;;;;14.10;56.10;;;;;;5024409;28;20472;-52
2022/10/07 09:02:53;;;;;;;;;;;14.10;56.10;;;;;;5014047;28;20012;-50
2022/10/07 09:05:22;;;;;;;;;;;14.20;56.10;;;;;;5026531;28;19925;-52
2022/10/07 09:07:51;;;;;;;;;;;14.30;56.20;;;;;;5017430;28;19929;-51
2022/10/07 09:10:26;;;;;;;;;;;14.40;56.20;;;;;;5017054;28;19933;-48
2022/10/07 09:12:57;;;;;;;;;;;14.40;56.20;;;;;;5014712;28;19929;-52
2022/10/07 09:15:30;;;;;;;;;;;14.50;56.40;;;;;;5014966;28;20372;-52
2022/10/07 09:17:59;;;;;;;;;;;14.60;56.40;;;;;;5018293;28;20396;-52
2022/10/07 09:20:30;;;;;;;;;;;14.70;56.50;;;;;;5024106;28;19926;-51
2022/10/07 09:22:58;;;;;;;;;;;14.80;56.50;;;;;;5024095;28;19932;-51
2022/10/07 09:25:25;;;;;;;;;;;14.90;56.50;;;;;;5015351;28;19929;-50
2022/10/07 09:27:53;;;;;;;;;;;14.90;56.50;;;;;;5013885;28;19936;-53
2022/10/07 09:30:22;;;;;;;;;;;15.00;56.50;;;;;;5008524;28;19956;-49
2022/10/07 09:32:53;;;;;;;;;;;15.10;56.60;;;;;;5021641;28;20293;-49
2022/10/07 09:35:21;;;;;;;;;;;15.20;57.10;;;;;;5025125;28;19937;-53
2022/10/07 09:37:55;;;;;;;;;;;15.30;56.50;;;;;;5022593;28;19944;-53
2022/10/07 09:40:30;;;;;;;;;;;15.40;56.20;;;;;;5022761;28;19936;-53
2022/10/07 09:42:57;;;;;;;;;;;15.50;55.90;;;;;;5024438;28;20389;-52
2022/10/07 09:45:27;;;;;;;;;;;15.60;55.80;;;;;;5021422;28;19933;-52
2022/10/07 09:47:55;;;;;;;;;;;15.70;55.70;;;;;;5016024;28;19932;-55
2022/10/07 09:50:31;;;;;;;;;;;15.70;55.40;;;;;;5020468;28;19929;-53
2022/10/07 09:52:58;;;;;;;;;;;15.80;55.10;;;;;;5022903;28;20265;-48
2022/10/07 09:55:31;;;;;;;;;;;15.90;54.90;;;;;;5023704;28;19932;-51
2022/10/07 09:58:02;;;;;;;;;;;16.00;54.80;;;;;;5022652;28;19932;-51
2022/10/07 10:00:30;;;;;;;;;;;16.00;54.70;;;;;;5017324;28;19926;-53
2022/10/07 10:03:03;;;;;;;;;;;16.10;54.60;;;;;;5021243;28;19928;-53
2022/10/07 10:05:31;;;;;;;;;;;16.20;54.50;;;;;;5021844;28;19952;-54
2022/10/07 10:08:00;;;;;;;;;;;16.30;54.30;;;;;;5021535;28;19926;-54
2022/10/07 10:10:27;;;;;;;;;;;16.30;54.00;;;;;;5021735;28;19925;-55
2022/10/07 10:12:55;;;;;;;;;;;16.40;53.70;;;;;;5022681;28;19936;-52
2022/10/07 10:15:28;;;;;;;;;;;16.50;53.50;;;;;;5018562;28;19940;-49
2022/10/07 10:17:57;;;;;;;;;;;16.60;53.40;;;;;;5018861;28;19929;-56
2022/10/07 10:20:26;;;;;;;;;;;16.70;53.20;;;;;;5021655;28;19936;-53
2022/10/07 10:22:53;;;;;;;;;;;16.80;53.00;;;;;;5017941;28;19933;-46
2022/10/07 10:28:12;;;;;;;;;;;16.90;52.80;;;;;;5024463;28;19929;-54
2022/10/07 10:30:49;;;;;;;;;;;16.90;52.80;;;;;;5019366;28;19932;-48
2022/10/07 10:33:23;;;;;;;;;;;17.00;52.70;;;;;;5022081;28;19925;-52
2022/10/07 10:35:55;;;;;;;;;;;17.00;52.50;;;;;;5017719;28;19926;-50
2022/10/07 10:38:26;;;;;;;;;;;17.10;52.40;;;;;;5020058;28;19936;-53
2022/10/07 10:40:56;;;;;;;;;;;17.10;52.30;;;;;;5019702;28;19936;-52
2022/10/07 10:43:28;;;;;;;;;;;17.20;52.10;;;;;;5018902;28;19929;-55
2022/10/07 10:46:03;;;;;;;;;;;17.20;52.10;;;;;;5018586;28;19925;-53
2022/10/07 10:48:37;;;;;;;;;;;17.20;51.90;;;;;;5023551;28;19929;-52
2022/10/07 10:51:12;;;;;;;;;;;17.30;52.00;;;;;;5016265;28;19932;-54
2022/10/07 10:53:44;;;;;;;;;;;17.30;51.90;;;;;;5023868;28;20258;-54
2022/10/07 10:56:16;;;;;;;;;;;17.40;51.80;;;;;;5014346;28;19925;-54
2022/10/07 10:58:52;;;;;;;;;;;17.40;51.70;;;;;;5020263;28;19940;-51
2022/10/07 11:01:22;;;;;;;;;;;17.50;51.60;;;;;;5020411;28;19925;-52
2022/10/07 11:04:10;;;;;;;;;;;17.60;51.20;;;;;;5017089;28;19925;-52
2022/10/07 11:06:44;;;;;;;;;;;17.60;51.20;;;;;;5017041;28;20349;-55
2022/10/07 11:09:37;;;;;;;;;;;17.70;51.10;;;;;;5028272;28;19932;-54
2022/10/07 11:12:45;;;;;;;;;;;17.80;50.90;;;;;;5025875;28;19929;-55
2022/10/07 11:15:15;;;;;;;;;;;17.90;50.20;;;;;;5023897;28;21756;-52
2022/10/07 11:17:43;;;;;;;;;;;17.90;50.40;;;;;;5010457;28;19925;-54
2022/10/07 11:20:17;;;;;;;;;;;18.00;50.40;;;;;;5017827;28;19929;-50
2022/10/07 11:22:51;;;;;;;;;;;18.00;50.30;;;;;;5022452;28;19932;-49
2022/10/07 11:25:23;;;;;;;;;;;18.10;50.20;;;;;;5021422;28;19925;-53
2022/10/07 11:27:50;;;;;;;;;;;18.10;49.00;;;;;;5020061;28;19929;-53
2022/10/07 11:30:18;;;;;;;;;;;18.20;49.20;;;;;;5015132;28;20512;-54
2022/10/07 11:32:48;;;;;;;;;;;18.20;49.40;;;;;;5023208;28;19940;-53
2022/10/07 11:35:22;;;;;;;;;;;18.30;49.90;;;;;;5022898;28;20361;-54
2022/10/07 11:37:54;;;;;;;;;;;18.30;49.40;;;;;;5019089;28;20295;-54
2022/10/07 11:40:22;;;;;;;;;;;18.30;49.40;;;;;;5017814;28;19936;-53
2022/10/07 11:42:51;;;;;;;;;;;18.40;49.30;;;;;;5019141;28;19936;-54
2022/10/07 11:45:21;;;;;;;;;;;18.40;49.30;;;;;;5017535;28;19935;-54
2022/10/07 11:47:50;;;;;;;;;;;18.50;49.30;;;;;;5020215;28;20299;-52
2022/10/07 11:50:20;;;;;;;;;;;18.50;49.20;;;;;;5019533;28;20388;-50
2022/10/07 11:52:48;;;;;;;;;;;18.60;49.10;;;;;;5019068;28;19933;-54
2022/10/07 11:55:21;;;;;;;;;;;18.60;49.00;;;;;;5019961;28;20296;-52
2022/10/07 11:57:53;;;;;;;;;;;18.70;48.80;;;;;;5020667;28;19956;-51
2022/10/07 12:00:24;;;;;;;;;;;18.70;48.60;;;;;;5019529;28;19933;-52
2022/10/07 12:02:51;;;;;;;;;;;18.80;48.60;;;;;;5022096;28;20018;-50
2022/10/07 12:05:36;;;;;;;;;;;18.80;48.40;;;;;;5016594;28;19933;-54
2022/10/07 12:08:23;;;;;;;;;;;18.80;48.30;;;;;;5023388;28;19933;-53
2022/10/07 12:10:53;;;;;;;;;;;18.90;48.10;;;;;;5018695;28;19933;-51
2022/10/07 12:15:34;;;;;;;9.38;1.83;;;19.00;47.70;;;;;;5075890;27;20568;-48
2022/10/07 12:18:29;;;;;;;7.30;1.77;;;18.90;47.20;;;;;;5057620;28;20079;-52
2022/10/07 12:21:07;;;;;;;7.70;1.50;;;18.80;46.70;;;;;;5076624;28;20059;-52
2022/10/07 12:23:44;;;;;;;5.03;1.10;;;18.80;47.10;;;;;;5071056;28;20056;-47
2022/10/07 12:26:42;;;;;;;5.78;1.38;;;18.80;47.00;;;;;;5077871;28;20052;-47
2022/10/07 12:29:30;;;;;;;5.80;1.98;;;18.80;46.90;;;;;;5057756;28;20045;-49
2022/10/07 12:31:58;;;;;;;4.82;1.38;;;18.80;46.90;;;;;;5061498;28;20411;-52
2022/10/07 12:34:43;;;;;;;5.95;1.95;;;18.80;47.00;;;;;;5069525;28;20055;-52
2022/10/07 12:37:36;;;;;;;8.13;1.55;;;18.80;46.80;;;;;;5071756;28;20057;-51
2022/10/07 12:40:13;;;;;;;5.68;1.52;;;18.80;46.80;;;;;;5075071;28;20064;-46
2022/10/07 12:42:49;;;;;;;8.85;2.10;;;18.80;46.60;;;;;;5064087;28;20481;-50
2022/10/07 12:45:19;;;;;;;8.93;1.40;;;18.80;46.50;;;;;;5063800;28;20516;-49
2022/10/07 12:47:52;;;;;;;8.43;1.42;;;18.80;46.60;;;;;;5061024;28;20115;-49
2022/10/07 12:50:21;;;;;;;7.57;1.50;;;18.80;46.50;;;;;;5060059;28;20489;-51
2022/10/07 12:52:51;;;;;;;6.60;1.65;;;18.90;46.60;;;;;;5062028;28;20064;-51
2022/10/07 12:55:22;;;;;;;7.45;1.45;;;18.90;46.20;;;;;;5080370;28;20048;-52
2022/10/07 12:57:52;;;;;;;12.45;1.88;;;19.00;46.30;;;;;;5066786;28;20072;-49
2022/10/07 13:00:21;;;;;;;9.10;1.73;;;19.00;46.20;;;;;;5072725;28;20056;-49
2022/10/07 13:03:23;;;;;;;8.20;2.13;;;19.00;46.20;;;;;;5061094;28;20428;-52
2022/10/07 13:06:25;;;;;;;6.90;1.63;;;19.00;45.90;;;;;;5063569;28;20049;-52
2022/10/07 13:09:15;;;;;;;9.13;1.45;;;19.10;45.90;;;;;;5034669;28;20059;-52
2022/10/07 13:12:12;;;;;;;11.60;1.75;;;19.10;46.00;;;;;;5061637;28;20045;-50
2022/10/07 13:14:52;;;;;;;5.03;1.30;;;19.20;46.00;;;;;;5058067;28;20053;-53
2022/10/07 13:17:34;;;;;;;7.05;1.45;;;19.20;46.00;;;;;;5058583;28;20397;-50
2022/10/07 13:20:13;;;;;;;8.27;1.50;;;19.20;46.10;;;;;;5068701;28;20063;-50
2022/10/07 13:22:46;;;;;;;9.63;1.65;;;19.30;45.80;;;;;;5062137;28;20052;-53
2022/10/07 13:25:14;;;;;;;7.88;1.58;;;19.30;45.60;;;;;;5059172;28;20049;-49
2022/10/07 13:27:50;;;;;;;7.60;1.30;;;19.30;45.40;;;;;;5057739;28;20497;-51
2022/10/07 13:30:37;;;;;;;6.22;1.30;;;19.30;45.50;;;;;;5040219;28;20057;-49
2022/10/07 13:33:29;;;;;;;7.45;2.55;;;19.30;45.30;;;;;;5054200;28;20060;-52
2022/10/07 13:36:12;;;;;;;7.43;1.52;;;19.30;45.10;;;;;;5055193;28;20488;-52
2022/10/07 13:38:39;;;;;;;9.97;1.73;;;19.40;45.30;;;;;;5053977;28;20059;-50
2022/10/07 13:41:14;;;;;;;11.68;1.52;;;19.40;45.50;;;;;;5044365;28;20500;-50
2022/10/07 13:43:43;;;;;;;7.05;1.48;;;19.40;45.60;;;;;;5052157;28;20057;-52
2022/10/07 13:46:13;;;;;;;7.03;1.67;;;19.40;45.50;;;;;;5053441;28;20056;-52
2022/10/07 13:48:43;;;;;;;7.20;1.73;;;19.40;45.40;;;;;;5052974;28;20056;-50
2022/10/07 13:51:27;;;;;;;6.88;1.80;;;19.50;45.10;;;;;;5045720;28;20056;-52
2022/10/07 13:53:58;;;;;;;6.88;1.42;;;19.50;45.40;;;;;;5056670;28;20419;-50
2022/10/07 13:56:30;;;;;;;9.80;2.67;;;19.50;45.60;;;;;;5048723;28;20053;-52
2022/10/07 13:58:58;;;;;;;9.65;1.70;;;19.50;45.60;;;;;;5053986;28;20052;-50
2022/10/07 14:01:29;;;;;;;27.23;9.00;;;19.60;45.40;;;;;;5044939;28;20056;-47
2022/10/07 14:04:08;;;;;;;43.72;19.33;;;19.60;45.30;;;;;;5055913;28;20048;-51
2022/10/07 14:06:48;;;;;;;13.32;4.45;;;19.60;45.30;;;;;;5048308;28;20057;-51
2022/10/07 14:09:21;;;;;;;8.82;2.53;;;19.60;45.10;;;;;;5064691;28;20052;-47
2022/10/07 14:11:53;;;;;;;9.77;1.50;;;19.60;44.90;;;;;;5052787;28;20048;-51
2022/10/07 14:14:23;;;;;;;8.27;1.50;;;19.60;44.80;;;;;;5060015;28;20400;-51
2022/10/07 14:16:57;;;;;;;9.40;2.15;;;19.60;44.90;;;;;;5050107;28;20053;-50
2022/10/07 14:19:28;;;;;;;;;;;19.50;44.80;;;;;;5047740;28;20059;-50
2022/10/07 14:21:57;;;;;;;5.63;1.70;;;19.60;45.10;;;;;;5042942;28;19929;-53
2022/10/07 14:24:25;;;;;;;9.52;1.65;;;19.60;45.10;;;;;;5041428;28;20163;-51
2022/10/07 14:26:52;;;;;;;8.70;2.60;;;19.60;45.10;;;;;;5056453;28;20045;-48
2022/10/07 14:29:36;;;;;;;19.75;8.65;;;19.60;45.20;;;;;;5050538;28;20057;-52
2022/10/07 14:37:42;;;;;;;5.88;1.90;;;19.70;45.90;;;;;;5053480;28;20037;-53
2022/10/07 14:40:21;;;;;;;4.95;1.70;;;19.70;46.00;;;;;;5041784;28;20056;-47
2022/10/07 14:42:53;;;;;;;5.38;1.45;;;19.70;46.10;;;;;;5042041;28;20415;-51
2022/10/07 14:45:22;;;;;;;5.60;1.40;;;19.70;46.30;;;;;;5043901;28;20511;-53